Time;durP1;ratioP1;P1;durP2;ratioP2;P2;SDS_P1;SDS_P2;PMS_P1;PMS_P2;Temp;Humidity;BMP_temperature;BMP_pressure;BME280_temperature;BME280_humidity;BME280_pressure;Samples;Min_cycle;Max_cycle;Signal;HPM_P1;HPM_P2
2023/06/29 00:01:16;;;;;;;5.32;4.47;;;26.30;64.70;;;;;;4723691;55;21008;-37
2023/06/29 00:06:17;;;;;;;5.57;5.07;;;26.30;64.90;;;;;;4722621;56;21091;-38
2023/06/29 00:11:18;;;;;;;5.12;4.62;;;26.30;65.00;;;;;;4775168;55;21478;-38
2023/06/29 00:16:19;;;;;;;5.55;5.05;;;26.30;64.70;;;;;;4658672;60;21116;-38
2023/06/29 00:21:20;;;;;;;5.10;4.70;;;26.30;64.80;;;;;;4660552;56;21088;-36
2023/06/29 00:26:21;;;;;;;4.95;4.55;;;26.30;64.80;;;;;;4683832;56;20996;-36
2023/06/29 00:31:24;;;;;;;5.20;4.78;;;26.30;64.90;;;;;;4700831;56;21524;-36
2023/06/29 00:36:25;;;;;;;7.53;4.95;;;26.30;64.80;;;;;;4702723;56;21943;-33
2023/06/29 00:41:25;;;;;;;5.28;4.80;;;26.30;64.60;;;;;;4659036;60;21416;-38
2023/06/29 00:46:26;;;;;;;5.30;4.80;;;26.30;64.80;;;;;;4677505;56;21987;-38
2023/06/29 00:51:29;;;;;;;5.22;4.72;;;26.20;64.60;;;;;;4658759;57;21016;-38
2023/06/29 00:56:35;;;;;;;5.15;4.65;;;26.20;64.70;;;;;;4751418;55;21059;-39
2023/06/29 01:01:38;;;;;;;5.23;4.83;;;26.30;64.70;;;;;;4665649;56;21529;-37
2023/06/29 01:06:50;;;;;;;6.78;4.90;;;26.20;64.60;;;;;;4700097;56;21573;-39
2023/06/29 01:11:55;;;;;;;5.45;4.95;;;26.20;64.60;;;;;;4695552;56;21051;-38
2023/06/29 01:16:57;;;;;;;5.15;4.75;;;26.30;64.70;;;;;;4704374;56;21151;-37
2023/06/29 01:22:06;;;;;;;5.82;4.95;;;26.20;64.70;;;;;;4743510;55;21546;-36
2023/06/29 01:27:08;;;;;;;5.53;5.03;;;26.20;64.60;;;;;;4658747;60;21921;-36
2023/06/29 01:32:10;;;;;;;5.47;4.97;;;26.20;64.60;;;;;;4658826;60;21148;-38
2023/06/29 01:37:19;;;;;;;5.03;4.53;;;26.20;64.50;;;;;;4709521;55;21487;-37
2023/06/29 01:42:22;;;;;;;5.28;4.85;;;26.20;64.60;;;;;;4882918;55;21067;-36
2023/06/29 01:47:24;;;;;;;5.57;4.87;;;26.20;64.50;;;;;;4783040;55;21012;-39
2023/06/29 01:52:25;;;;;;;5.28;4.78;;;26.20;64.50;;;;;;4691292;55;21068;-37
2023/06/29 01:57:26;;;;;;;5.45;4.97;;;26.20;64.50;;;;;;4716140;55;21009;-35
2023/06/29 02:02:27;;;;;;;5.12;4.72;;;26.20;65.10;;;;;;4756456;55;21557;-36
2023/06/29 02:07:27;;;;;;;5.37;4.87;;;26.20;64.50;;;;;;4658709;60;21016;-36
2023/06/29 02:12:30;;;;;;;5.18;4.50;;;26.20;64.50;;;;;;4768603;55;21012;-36
2023/06/29 02:17:30;;;;;;;5.60;5.10;;;26.20;64.40;;;;;;4658971;60;21052;-36
2023/06/29 02:22:32;;;;;;;5.28;4.85;;;26.20;64.40;;;;;;4831127;55;21486;-36
2023/06/29 02:27:33;;;;;;;5.60;4.97;;;26.20;64.40;;;;;;4684241;56;21578;-36
2023/06/29 02:32:34;;;;;;;6.32;4.95;;;26.20;64.60;;;;;;4746584;56;21060;-37
2023/06/29 02:37:34;;;;;;;5.53;4.95;;;26.20;64.50;;;;;;4663154;55;21507;-36
2023/06/29 02:42:36;;;;;;;5.00;4.60;;;26.20;65.10;;;;;;4700499;56;22329;-35
2023/06/29 02:47:37;;;;;;;6.20;5.47;;;26.20;64.20;;;;;;4658861;60;21458;-37
2023/06/29 02:52:38;;;;;;;5.40;4.93;;;26.20;64.40;;;;;;4763076;55;21016;-38
2023/06/29 02:57:39;;;;;;;5.30;4.90;;;26.20;64.30;;;;;;4659127;60;21561;-37
2023/06/29 03:02:40;;;;;;;5.43;5.03;;;26.20;64.30;;;;;;4681725;56;21024;-37
2023/06/29 03:07:41;;;;;;;6.00;5.40;;;26.20;64.40;;;;;;4672504;56;20988;-38
2023/06/29 03:12:41;;;;;;;6.05;5.53;;;26.20;65.10;;;;;;4849663;55;21150;-36
2023/06/29 03:17:42;;;;;;;6.00;5.40;;;26.20;64.20;;;;;;4698822;56;21135;-37
2023/06/29 03:22:43;;;;;;;6.03;5.53;;;26.20;64.30;;;;;;4668534;56;21004;-36
2023/06/29 03:27:44;;;;;;;5.72;5.22;;;26.20;64.30;;;;;;4680329;56;21586;-38
2023/06/29 03:32:45;;;;;;;5.90;5.40;;;26.10;64.20;;;;;;4700981;56;21044;-36
2023/06/29 03:37:46;;;;;;;5.93;5.43;;;26.10;64.20;;;;;;4737680;55;21617;-38
2023/06/29 03:42:49;;;;;;;6.10;5.50;;;26.10;64.10;;;;;;4782091;55;21020;-37
2023/06/29 03:47:50;;;;;;;5.93;5.35;;;26.10;63.90;;;;;;4658719;60;21092;-35
2023/06/29 03:52:51;;;;;;;6.53;5.85;;;26.10;64.00;;;;;;4658408;60;21076;-35
2023/06/29 03:57:52;;;;;;;5.53;5.03;;;26.10;63.70;;;;;;4659240;60;21051;-36
2023/06/29 04:02:52;;;;;;;6.50;5.90;;;26.10;63.80;;;;;;4771138;56;21563;-36
2023/06/29 04:07:56;;;;;;;6.45;5.85;;;26.10;63.60;;;;;;4676066;56;21028;-38
2023/06/29 04:12:57;;;;;;;6.32;5.72;;;26.10;63.70;;;;;;4659132;60;21585;-38
2023/06/29 04:17:58;;;;;;;6.75;6.15;;;26.10;63.50;;;;;;4727948;55;21172;-36
2023/06/29 04:22:58;;;;;;;6.25;5.65;;;26.10;63.50;;;;;;4699345;56;21579;-40
2023/06/29 04:27:59;;;;;;;6.20;5.62;;;26.10;63.10;;;;;;4735059;56;21087;-36
2023/06/29 04:33:09;;;;;;;6.57;5.87;;;26.10;63.20;;;;;;4658914;60;21595;-36
2023/06/29 04:38:12;;;;;;;6.68;5.90;;;26.10;63.10;;;;;;4703116;55;21542;-36
2023/06/29 04:43:13;;;;;;;6.70;6.07;;;26.10;63.20;;;;;;4734033;56;21510;-36
2023/06/29 04:48:15;;;;;;;7.12;6.43;;;26.00;62.80;;;;;;4661859;56;21012;-36
2023/06/29 04:53:16;;;;;;;6.87;6.20;;;26.00;62.90;;;;;;4833212;55;21482;-37
2023/06/29 04:58:17;;;;;;;7.50;6.45;;;26.00;62.70;;;;;;4687992;55;21008;-37
2023/06/29 05:03:17;;;;;;;6.90;6.30;;;26.00;62.40;;;;;;4658726;56;21598;-37
2023/06/29 05:08:18;;;;;;;6.78;6.18;;;26.00;62.70;;;;;;4687969;55;21029;-38
2023/06/29 05:19:16;;;;;;;7.45;6.75;;;26.00;62.30;;;;;;4710458;55;21016;-36
2023/06/29 05:24:17;;;;;;;7.25;6.50;;;26.00;62.40;;;;;;4706498;56;21590;-38
2023/06/29 05:29:18;;;;;;;7.62;6.70;;;26.00;62.40;;;;;;4669283;55;21024;-39
2023/06/29 05:34:19;;;;;;;6.55;5.95;;;26.00;62.10;;;;;;4660876;56;22013;-38
2023/06/29 05:39:19;;;;;;;7.85;7.07;;;26.00;61.90;;;;;;4675979;55;21464;-39
2023/06/29 05:44:20;;;;;;;7.72;7.03;;;26.00;62.00;;;;;;4662831;55;21428;-38
2023/06/29 05:49:22;;;;;;;8.30;7.47;;;26.00;61.70;;;;;;4676802;56;22283;-38
2023/06/29 05:54:23;;;;;;;9.38;7.00;;;26.00;61.70;;;;;;4696619;56;21504;-38
2023/06/29 05:59:23;;;;;;;7.95;7.10;;;26.00;61.70;;;;;;4700210;56;21345;-38
2023/06/29 06:04:24;;;;;;;8.45;7.65;;;26.00;61.70;;;;;;4708927;56;22325;-39
2023/06/29 06:09:25;;;;;;;10.10;8.55;;;26.00;61.70;;;;;;4727877;56;21219;-36
2023/06/29 06:14:26;;;;;;;8.85;7.95;;;26.00;61.40;;;;;;4667896;56;21015;-39
2023/06/29 06:19:27;;;;;;;8.48;7.68;;;26.00;61.70;;;;;;4733611;55;21816;-37
2023/06/29 06:24:27;;;;;;;9.00;8.10;;;26.00;61.90;;;;;;4721707;55;21103;-37
2023/06/29 06:29:28;;;;;;;9.38;8.25;;;26.00;61.90;;;;;;4664693;56;21000;-39
2023/06/29 06:34:30;;;;;;;10.10;8.88;;;26.00;61.70;;;;;;4667782;56;21051;-36
2023/06/29 06:39:34;;;;;;;9.85;8.85;;;25.90;61.80;;;;;;4659294;56;21428;-37
2023/06/29 06:44:48;;;;;;;10.68;8.95;;;25.90;61.70;;;;;;4694850;56;21080;-36
2023/06/29 06:51:44;;;;;;;10.20;9.20;;;26.00;61.80;;;;;;4773541;54;22098;-37
2023/06/29 06:56:45;;;;;;;11.77;9.40;;;25.90;61.70;;;;;;4767669;55;21113;-36
2023/06/29 07:01:46;;;;;;;11.12;9.75;;;25.90;61.80;;;;;;4794800;55;21041;-39
2023/06/29 07:06:47;;;;;;;15.70;9.57;;;25.90;61.50;;;;;;4744146;55;21012;-38
2023/06/29 07:11:48;;;;;;;11.55;9.32;;;25.90;61.60;;;;;;4773648;55;21116;-39
2023/06/29 07:16:49;;;;;;;13.57;10.45;;;25.90;61.60;;;;;;4802656;55;21016;-38
2023/06/29 07:21:50;;;;;;;12.68;9.80;;;26.00;61.70;;;;;;4743790;58;21631;-38
2023/06/29 07:26:50;;;;;;;12.15;10.48;;;26.00;61.60;;;;;;4758703;55;21092;-38
2023/06/29 07:31:51;;;;;;;11.40;10.15;;;25.90;61.50;;;;;;4802631;55;21121;-39
2023/06/29 07:36:52;;;;;;;14.40;11.10;;;26.00;61.40;;;;;;4910439;54;21035;-37
2023/06/29 07:41:53;;;;;;;11.35;10.10;;;25.90;61.50;;;;;;4840556;54;21025;-38
2023/06/29 07:46:54;;;;;;;12.65;10.13;;;25.90;61.50;;;;;;4827712;54;21815;-36
2023/06/29 07:51:55;;;;;;;14.25;10.95;;;26.00;61.60;;;;;;4798646;55;22097;-37
2023/06/29 07:56:56;;;;;;;10.95;9.85;;;25.90;61.50;;;;;;4856928;54;21478;-37
2023/06/29 08:01:57;;;;;;;13.07;11.10;;;26.00;61.60;;;;;;4833094;54;21026;-38
2023/06/29 08:06:57;;;;;;;11.95;10.43;;;26.00;61.70;;;;;;4901843;54;21391;-39
2023/06/29 08:11:58;;;;;;;14.52;11.32;;;26.00;61.70;;;;;;4814325;54;21426;-39
2023/06/29 08:16:59;;;;;;;14.32;11.02;;;26.00;61.70;;;;;;4817567;54;21835;-39
2023/06/29 08:22:00;;;;;;;13.20;10.95;;;26.00;61.70;;;;;;4796194;58;21010;-38
2023/06/29 08:27:01;;;;;;;13.82;11.15;;;26.00;62.30;;;;;;4815517;54;21070;-38
2023/06/29 08:32:02;;;;;;;14.23;11.82;;;26.00;61.70;;;;;;4796771;58;21564;-37
2023/06/29 08:37:03;;;;;;;13.05;11.70;;;26.00;61.70;;;;;;4816755;54;21038;-36
2023/06/29 08:42:04;;;;;;;15.52;12.23;;;26.00;61.60;;;;;;4796208;58;21171;-35
2023/06/29 08:47:06;;;;;;;16.40;13.05;;;26.00;61.70;;;;;;4859799;54;21185;-37
2023/06/29 08:52:11;;;;;;;15.20;12.15;;;26.00;61.70;;;;;;4802187;54;21284;-37
2023/06/29 08:57:12;;;;;;;14.45;11.52;;;26.00;61.70;;;;;;4801955;54;21109;-39
2023/06/29 09:02:13;;;;;;;14.77;12.32;;;26.00;61.70;;;;;;4800179;54;21517;-36
2023/06/29 09:07:15;;;;;;;16.05;12.68;;;26.00;61.70;;;;;;4861191;54;21054;-39
2023/06/29 09:12:17;;;;;;;17.70;13.10;;;26.00;61.70;;;;;;4868962;53;21545;-38
2023/06/29 09:17:18;;;;;;;15.50;12.90;;;26.00;61.70;;;;;;4831408;54;21154;-38
2023/06/29 09:22:21;;;;;;;13.30;11.45;;;26.00;61.50;;;;;;4858435;54;21050;-37
2023/06/29 09:27:22;;;;;;;13.88;12.20;;;26.00;61.70;;;;;;4829521;54;21134;-37
2023/06/29 09:32:22;;;;;;;13.52;12.10;;;26.00;61.50;;;;;;4952274;54;21098;-34
2023/06/29 09:37:25;;;;;;;14.82;12.95;;;26.00;61.60;;;;;;4992008;54;21030;-36
2023/06/29 09:42:29;;;;;;;17.52;12.60;;;26.00;61.60;;;;;;4851587;53;21541;-37
2023/06/29 09:47:31;;;;;;;16.08;13.05;;;26.00;61.50;;;;;;4796237;58;20987;-36
2023/06/29 09:52:45;;;;;;;15.82;11.80;;;26.00;61.50;;;;;;4862163;54;22336;-37
2023/06/29 09:57:46;;;;;;;17.30;13.40;;;26.10;62.00;;;;;;4804784;54;21529;-36
2023/06/29 10:02:47;;;;;;;15.27;13.35;;;26.10;62.50;;;;;;4800300;54;21015;-30
2023/06/29 10:07:53;;;;;;;15.32;13.30;;;26.20;62.60;;;;;;4794294;58;21568;-38
2023/06/29 10:12:56;;;;;;;16.35;13.32;;;26.20;63.30;;;;;;4799692;54;21019;-37
2023/06/29 10:18:07;;;;;;;17.35;13.48;;;26.30;63.00;;;;;;4823444;54;21078;-36
2023/06/29 10:23:10;;;;;;;22.00;13.55;;;26.40;63.10;;;;;;4826064;54;20979;-35
2023/06/29 10:28:13;;;;;;;20.83;14.35;;;26.40;62.90;;;;;;4802138;54;21015;-36
2023/06/29 10:33:20;;;;;;;24.48;15.10;;;26.30;62.60;;;;;;4841503;54;20991;-37
2023/06/29 10:38:30;;;;;;;19.70;14.52;;;26.30;63.40;;;;;;4807435;54;21014;-36
2023/06/29 10:44:03;;;;;;;22.80;15.82;;;26.20;62.80;;;;;;4795699;54;21090;-36
2023/06/29 10:49:06;;;;;;;20.85;15.32;;;26.20;62.80;;;;;;4803215;54;21504;-36
2023/06/29 10:54:08;;;;;;;19.75;14.90;;;26.20;62.80;;;;;;4810307;54;20979;-37
2023/06/29 10:59:10;;;;;;;17.70;14.35;;;26.10;62.80;;;;;;4839488;54;21098;-37
2023/06/29 11:04:11;;;;;;;20.65;14.63;;;26.20;62.80;;;;;;4798011;54;21441;-32
2023/06/29 11:09:16;;;;;;;16.17;13.70;;;26.20;62.80;;;;;;4809572;54;21082;-33
2023/06/29 11:14:18;;;;;;;20.00;14.23;;;26.20;62.70;;;;;;4794718;58;21066;-37
2023/06/29 11:19:21;;;;;;;17.42;14.02;;;26.10;62.70;;;;;;4815321;54;21517;-37
2023/06/29 11:24:22;;;;;;;19.15;14.48;;;26.10;62.70;;;;;;4801001;54;21603;-38
2023/06/29 11:29:23;;;;;;;19.12;14.48;;;26.10;62.70;;;;;;4794181;54;21050;-33
2023/06/29 11:34:23;;;;;;;16.83;13.43;;;26.10;62.60;;;;;;4801475;54;21035;-38
2023/06/29 11:39:24;;;;;;;16.77;14.25;;;26.10;62.60;;;;;;4900653;54;21015;-31
2023/06/29 11:44:26;;;;;;;21.67;13.00;;;26.10;62.60;;;;;;4836196;54;21098;-35
2023/06/29 11:49:26;;;;;;;16.80;13.02;;;26.10;63.20;;;;;;4842572;54;21030;-36
2023/06/29 11:54:29;;;;;;;17.35;12.77;;;26.10;62.50;;;;;;4807359;54;21010;-36
2023/06/29 11:59:31;;;;;;;18.52;13.02;;;26.10;62.50;;;;;;4795044;54;21506;-36
2023/06/29 12:04:32;;;;;;;14.70;12.88;;;26.10;62.40;;;;;;4849647;54;21626;-39
2023/06/29 12:09:34;;;;;;;15.00;12.88;;;26.10;62.30;;;;;;4800241;54;21090;-39
2023/06/29 12:14:35;;;;;;;15.93;13.00;;;26.10;62.40;;;;;;4904594;53;21119;-38
2023/06/29 12:19:38;;;;;;;18.00;13.20;;;26.10;62.30;;;;;;4794505;58;21529;-31
2023/06/29 12:24:38;;;;;;;16.75;13.30;;;26.10;62.20;;;;;;4797856;54;21470;-38
2023/06/29 12:29:41;;;;;;;15.00;11.73;;;26.10;62.20;;;;;;4822677;54;21066;-37
2023/06/29 12:34:41;;;;;;;17.62;12.90;;;26.10;61.60;;;;;;4796148;55;21023;-37
2023/06/29 12:39:42;;;;;;;16.25;12.65;;;26.10;62.10;;;;;;4847514;54;21382;-37
2023/06/29 12:44:43;;;;;;;15.25;12.23;;;26.10;62.20;;;;;;4865720;54;22362;-37
2023/06/29 12:49:47;;;;;;;14.77;12.30;;;26.10;62.20;;;;;;4850924;54;21008;-35
2023/06/29 12:54:48;;;;;;;14.70;12.75;;;26.10;62.20;;;;;;4811089;54;21015;-36
2023/06/29 12:59:48;;;;;;;14.25;12.02;;;26.10;62.10;;;;;;4851778;54;21027;-37
2023/06/29 13:04:49;;;;;;;16.05;12.90;;;26.10;62.20;;;;;;4828725;54;21066;-36
2023/06/29 13:09:53;;;;;;;14.98;12.07;;;26.10;62.10;;;;;;4847934;54;21126;-37
2023/06/29 13:14:55;;;;;;;13.95;11.75;;;26.10;62.20;;;;;;4864955;54;21584;-35
2023/06/29 13:19:56;;;;;;;13.82;12.25;;;26.10;62.00;;;;;;4847623;54;21533;-39
2023/06/29 13:24:56;;;;;;;15.00;12.40;;;26.10;62.20;;;;;;4814284;54;21589;-36
2023/06/29 13:29:57;;;;;;;14.82;12.55;;;26.10;62.30;;;;;;4795572;58;21099;-37
2023/06/29 13:34:58;;;;;;;16.25;12.90;;;26.10;62.10;;;;;;4812591;54;21110;-39
2023/06/29 13:39:59;;;;;;;15.18;12.60;;;26.10;62.00;;;;;;4892378;54;21019;-37
2023/06/29 13:45:00;;;;;;;16.10;13.18;;;26.10;62.00;;;;;;4848759;54;22022;-38
2023/06/29 13:50:01;;;;;;;15.43;12.10;;;26.10;62.10;;;;;;4834881;54;21178;-39
2023/06/29 13:55:02;;;;;;;15.88;12.65;;;26.10;62.00;;;;;;4945923;54;21446;-36
2023/06/29 14:00:04;;;;;;;16.48;13.02;;;26.10;62.20;;;;;;4808659;54;21059;-37
2023/06/29 14:05:05;;;;;;;15.68;12.48;;;26.10;62.10;;;;;;4796197;58;21568;-36
2023/06/29 14:10:07;;;;;;;14.48;11.93;;;26.10;62.10;;;;;;4830152;54;21031;-37
2023/06/29 14:15:09;;;;;;;13.77;12.35;;;26.10;62.10;;;;;;4825341;54;20995;-37
2023/06/29 14:20:11;;;;;;;16.65;12.88;;;26.10;62.10;;;;;;4812809;54;21051;-37
2023/06/29 14:25:11;;;;;;;15.85;12.23;;;26.10;62.00;;;;;;4924381;54;21031;-39
2023/06/29 14:30:13;;;;;;;12.95;11.10;;;26.10;62.00;;;;;;4798785;54;20979;-37
2023/06/29 14:35:14;;;;;;;14.50;11.75;;;26.10;62.00;;;;;;4815817;54;21505;-35
2023/06/29 14:40:15;;;;;;;14.63;12.45;;;26.10;62.00;;;;;;4825156;54;21039;-37
2023/06/29 14:45:16;;;;;;;14.45;12.57;;;26.10;62.00;;;;;;4800410;54;21010;-36
2023/06/29 14:50:17;;;;;;;15.00;12.23;;;26.10;62.00;;;;;;4840853;54;21134;-37
2023/06/29 14:55:18;;;;;;;12.48;11.02;;;26.10;62.10;;;;;;4796682;55;21026;-37
2023/06/29 15:00:20;;;;;;;13.15;11.48;;;26.10;62.00;;;;;;4880499;54;21130;-38
2023/06/29 15:05:21;;;;;;;14.23;12.18;;;26.10;61.90;;;;;;4867411;54;21067;-37
2023/06/29 15:10:22;;;;;;;14.68;12.23;;;26.10;62.00;;;;;;4878084;54;22730;-36
2023/06/29 15:15:22;;;;;;;13.88;11.80;;;26.10;62.00;;;;;;4900444;54;20991;-38
2023/06/29 15:20:23;;;;;;;13.48;11.30;;;26.10;61.90;;;;;;4834957;54;21461;-38
2023/06/29 15:25:24;;;;;;;12.73;11.48;;;26.10;62.00;;;;;;4802010;54;21059;-37
2023/06/29 15:30:25;;;;;;;13.05;11.75;;;26.10;62.10;;;;;;4889116;54;21083;-37
2023/06/29 15:35:26;;;;;;;14.30;12.18;;;26.10;62.00;;;;;;4810863;54;21027;-36
2023/06/29 15:40:27;;;;;;;13.82;10.98;;;26.10;62.10;;;;;;4816491;54;21003;-35
2023/06/29 15:45:28;;;;;;;13.98;11.90;;;26.10;62.20;;;;;;4852894;54;21059;-36
2023/06/29 15:50:29;;;;;;;14.07;11.73;;;26.10;62.20;;;;;;4817531;54;21137;-37
2023/06/29 15:55:30;;;;;;;14.35;11.90;;;26.10;62.30;;;;;;4824397;54;21648;-35
2023/06/29 16:00:30;;;;;;;13.73;11.40;;;26.10;62.30;;;;;;4825286;54;21066;-37
2023/06/29 16:05:33;;;;;;;12.98;11.40;;;26.10;62.30;;;;;;4796722;58;21518;-35
2023/06/29 16:10:34;;;;;;;12.88;11.50;;;26.10;62.20;;;;;;4834153;54;21601;-36
2023/06/29 16:15:35;;;;;;;13.90;11.85;;;26.10;62.30;;;;;;4799700;54;21031;-36
2023/06/29 16:20:36;;;;;;;12.70;11.20;;;26.10;62.30;;;;;;4968483;54;21062;-38
2023/06/29 16:25:37;;;;;;;12.20;10.90;;;26.10;62.40;;;;;;4796389;58;21538;-34
2023/06/29 16:30:38;;;;;;;12.32;10.98;;;26.10;62.20;;;;;;4798984;54;21181;-38
2023/06/29 16:35:38;;;;;;;13.95;11.20;;;26.10;62.90;;;;;;4807907;53;21034;-37
2023/06/29 16:40:39;;;;;;;14.80;12.32;;;26.10;62.20;;;;;;4861266;53;21509;-37
2023/06/29 16:45:40;;;;;;;13.25;11.30;;;26.10;62.40;;;;;;4853392;54;21034;-37
2023/06/29 16:50:41;;;;;;;12.70;11.10;;;26.10;62.20;;;;;;4817349;54;21027;-37
2023/06/29 16:55:42;;;;;;;12.27;10.98;;;26.10;62.10;;;;;;4796297;58;21011;-38
2023/06/29 17:00:43;;;;;;;12.18;10.82;;;26.10;62.10;;;;;;4818209;54;21088;-36
2023/06/29 17:05:44;;;;;;;12.88;11.55;;;26.10;62.10;;;;;;4820270;54;21067;-35
2023/06/29 17:10:44;;;;;;;12.13;10.82;;;26.10;62.00;;;;;;4861870;54;21528;-37
2023/06/29 17:15:45;;;;;;;15.52;11.90;;;26.10;62.00;;;;;;4844653;54;21105;-36
2023/06/29 17:20:47;;;;;;;13.20;11.23;;;26.10;62.00;;;;;;4813406;54;21046;-36
2023/06/29 17:25:50;;;;;;;12.30;10.90;;;26.10;62.10;;;;;;4835765;54;21522;-35
2023/06/29 17:30:52;;;;;;;12.48;11.12;;;26.10;62.20;;;;;;4823720;54;21019;-37
2023/06/29 17:35:52;;;;;;;12.80;11.40;;;26.10;62.10;;;;;;4826921;53;21055;-37
2023/06/29 17:40:53;;;;;;;12.65;11.35;;;26.10;62.10;;;;;;4880733;54;21060;-36
2023/06/29 17:45:54;;;;;;;12.45;11.25;;;26.10;62.10;;;;;;4836162;54;21323;-36
2023/06/29 17:50:55;;;;;;;13.05;11.65;;;26.10;62.20;;;;;;4798297;54;21501;-37
2023/06/29 17:55:57;;;;;;;12.05;10.82;;;26.10;62.20;;;;;;4935819;54;21059;-32
2023/06/29 18:00:57;;;;;;;11.68;10.40;;;26.10;62.20;;;;;;4845831;54;21557;-33
2023/06/29 18:05:58;;;;;;;11.45;10.23;;;26.10;62.20;;;;;;4833511;53;21103;-33
2023/06/29 18:10:59;;;;;;;12.23;11.02;;;26.10;62.20;;;;;;4818196;54;21564;-37
2023/06/29 18:16:02;;;;;;;12.90;10.98;;;26.10;62.20;;;;;;4808353;54;20995;-36
2023/06/29 18:21:03;;;;;;;12.35;11.10;;;26.10;62.20;;;;;;4796596;58;21003;-36
2023/06/29 18:26:07;;;;;;;12.23;10.93;;;26.10;62.20;;;;;;4842153;54;21084;-37
2023/06/29 18:31:08;;;;;;;13.27;10.82;;;26.10;62.90;;;;;;4798375;54;21601;-36
2023/06/29 18:36:09;;;;;;;12.57;10.77;;;26.10;62.20;;;;;;4833775;54;21016;-36
2023/06/29 18:47:58;;;;;;;13.13;11.40;;;26.10;62.20;;;;;;4801936;54;21043;-37
2023/06/29 18:53:00;;;;;;;12.98;11.50;;;26.10;62.20;;;;;;4799283;54;21512;-38
2023/06/29 18:58:01;;;;;;;11.80;10.02;;;26.10;62.20;;;;;;4796128;58;21577;-32
2023/06/29 19:03:02;;;;;;;11.45;10.18;;;26.10;62.20;;;;;;4799204;54;21010;-38
2023/06/29 19:08:03;;;;;;;11.40;10.15;;;26.10;62.80;;;;;;4796286;58;21473;-39
2023/06/29 19:13:04;;;;;;;11.70;10.50;;;26.10;62.20;;;;;;4843517;54;21061;-37
2023/06/29 19:18:14;;;;;;;11.98;10.75;;;26.10;62.30;;;;;;4826375;54;21461;-39
2023/06/29 19:23:15;;;;;;;12.13;10.77;;;26.10;62.10;;;;;;4806754;54;21532;-37
2023/06/29 19:28:19;;;;;;;11.93;10.70;;;26.10;62.20;;;;;;4819180;54;21449;-36
2023/06/29 19:33:21;;;;;;;13.40;10.50;;;26.10;62.20;;;;;;4823036;54;21321;-38
2023/06/29 19:38:22;;;;;;;10.55;9.50;;;26.10;62.20;;;;;;4895834;53;21481;-35
2023/06/29 19:43:23;;;;;;;12.50;10.65;;;26.10;62.20;;;;;;4796091;55;21022;-36
2023/06/29 19:48:24;;;;;;;11.70;10.50;;;26.10;62.40;;;;;;4811142;54;22201;-34
2023/06/29 19:53:25;;;;;;;12.60;10.15;;;26.00;62.10;;;;;;4855671;54;21477;-37
2023/06/29 19:58:26;;;;;;;10.98;9.82;;;26.10;62.20;;;;;;4869312;54;21090;-36
2023/06/29 20:03:27;;;;;;;10.93;9.32;;;26.00;62.10;;;;;;4848497;54;21490;-37
2023/06/29 20:08:28;;;;;;;13.98;10.63;;;26.00;62.10;;;;;;4834761;54;21079;-34
2023/06/29 20:13:29;;;;;;;11.15;9.90;;;26.00;62.10;;;;;;4858894;54;21402;-37
2023/06/29 20:18:29;;;;;;;10.63;9.52;;;26.00;62.30;;;;;;4863902;54;21043;-38
2023/06/29 20:23:30;;;;;;;11.85;10.32;;;26.00;62.20;;;;;;4840561;54;21328;-36
2023/06/29 20:28:31;;;;;;;10.60;9.50;;;26.00;62.10;;;;;;4842242;54;21505;-37
2023/06/29 20:33:32;;;;;;;10.30;9.25;;;26.00;62.10;;;;;;4842987;54;21469;-35
2023/06/29 20:38:33;;;;;;;10.60;9.50;;;26.00;62.10;;;;;;4890149;54;21019;-34
2023/06/29 20:43:34;;;;;;;12.23;9.65;;;26.00;62.10;;;;;;4885596;54;21533;-35
2023/06/29 20:48:35;;;;;;;11.57;9.77;;;26.00;62.10;;;;;;4823745;54;21074;-36
2023/06/29 20:53:36;;;;;;;10.85;8.98;;;26.00;62.00;;;;;;4796564;58;21561;-37
2023/06/29 20:58:37;;;;;;;10.85;9.65;;;26.00;62.00;;;;;;4824001;54;21023;-37
2023/06/29 21:03:43;;;;;;;11.00;9.20;;;26.00;62.10;;;;;;4798807;54;21481;-43
2023/06/29 21:08:44;;;;;;;10.60;8.70;;;26.00;62.10;;;;;;4921500;54;21470;-37
2023/06/29 21:13:45;;;;;;;10.25;9.10;;;26.00;62.10;;;;;;4799685;54;21042;-36
2023/06/29 21:18:47;;;;;;;9.63;8.48;;;26.00;62.10;;;;;;4796737;58;21050;-38
2023/06/29 21:23:48;;;;;;;11.20;9.07;;;26.00;62.00;;;;;;4937962;54;21561;-37
2023/06/29 21:28:54;;;;;;;11.88;8.88;;;26.00;62.00;;;;;;4816967;54;21063;-34
2023/06/29 21:33:55;;;;;;;10.30;8.32;;;26.00;62.10;;;;;;4819542;54;21509;-38
2023/06/29 21:38:57;;;;;;;11.10;9.30;;;26.00;62.00;;;;;;4800925;54;21113;-37
2023/06/29 21:43:58;;;;;;;9.07;8.18;;;26.00;62.00;;;;;;4855472;53;20991;-37
2023/06/29 21:48:59;;;;;;;10.32;8.57;;;26.00;62.00;;;;;;4805525;54;21150;-36
2023/06/29 21:54:03;;;;;;;9.68;8.68;;;26.00;61.90;;;;;;4957923;54;21130;-37
2023/06/29 21:59:04;;;;;;;9.20;8.25;;;26.00;62.30;;;;;;4797929;54;21059;-38
2023/06/29 22:04:04;;;;;;;9.50;8.43;;;26.00;61.90;;;;;;4811396;54;21054;-36
2023/06/29 22:09:05;;;;;;;9.15;8.25;;;26.00;62.10;;;;;;4931359;54;21106;-37
2023/06/29 22:14:07;;;;;;;8.63;7.72;;;26.00;62.00;;;;;;4807240;54;21434;-36
2023/06/29 22:19:09;;;;;;;8.88;7.97;;;25.90;62.00;;;;;;4868171;54;21548;-37
2023/06/29 22:24:10;;;;;;;9.00;7.90;;;26.00;62.00;;;;;;4796575;54;21528;-36
2023/06/29 22:29:11;;;;;;;8.90;7.97;;;26.00;62.00;;;;;;4795713;58;21023;-38
2023/06/29 22:34:12;;;;;;;9.00;8.10;;;25.90;61.90;;;;;;5002021;54;21558;-36
2023/06/29 22:39:13;;;;;;;10.38;8.27;;;26.00;62.00;;;;;;4797038;54;21006;-37
2023/06/29 22:44:14;;;;;;;9.02;8.00;;;25.90;61.90;;;;;;4796747;58;21449;-38
2023/06/29 22:49:15;;;;;;;8.02;7.22;;;25.90;61.90;;;;;;4850507;54;21105;-36
2023/06/29 22:54:15;;;;;;;7.68;6.87;;;26.00;62.10;;;;;;4796466;58;21106;-37
2023/06/29 22:59:16;;;;;;;9.02;7.43;;;25.90;62.00;;;;;;4863693;54;21102;-37
2023/06/29 23:04:17;;;;;;;8.30;7.40;;;25.90;62.00;;;;;;4825880;54;21046;-37
2023/06/29 23:09:18;;;;;;;8.18;7.10;;;25.90;62.00;;;;;;4888792;54;21034;-36
2023/06/29 23:14:19;;;;;;;7.45;6.75;;;25.90;62.00;;;;;;4823142;54;21276;-36
2023/06/29 23:19:23;;;;;;;8.38;7.15;;;25.90;62.00;;;;;;4796715;58;21062;-36
2023/06/29 23:24:23;;;;;;;7.85;7.10;;;25.90;62.60;;;;;;4814024;54;21047;-38
2023/06/29 23:29:24;;;;;;;8.70;7.80;;;25.90;62.10;;;;;;4804844;54;21102;-38
2023/06/29 23:34:25;;;;;;;7.47;6.75;;;25.90;62.10;;;;;;4825415;54;21046;-38
2023/06/29 23:39:26;;;;;;;8.05;7.25;;;25.90;62.00;;;;;;4796595;55;21015;-42
2023/06/29 23:44:27;;;;;;;7.28;6.57;;;25.90;62.00;;;;;;4796762;58;21457;-38
2023/06/29 23:49:28;;;;;;;7.93;7.12;;;25.90;62.10;;;;;;4849769;53;21019;-38
2023/06/29 23:54:29;;;;;;;7.85;7.07;;;25.90;62.00;;;;;;4819775;54;21003;-38
2023/06/29 23:59:30;;;;;;;7.78;6.82;;;25.90;62.10;;;;;;4816068;54;21011;-37
